Time;durP1;ratioP1;P1;durP2;ratioP2;P2;SDS_P1;SDS_P2;PMS_P1;PMS_P2;Temp;Humidity;BMP_temperature;BMP_pressure;BME280_temperature;BME280_humidity;BME280_pressure;Samples;Min_cycle;Max_cycle;Signal;HPM_P1;HPM_P2
2021/05/18 00:01:47;;;;;;;1.88;0.50;;;;;;;31.16;22.00;93701.91;5094659;28;20071;-42
2021/05/18 00:04:14;;;;;;;1.85;0.50;;;;;;;30.93;21.97;93688.72;5094552;28;20059;-43
2021/05/18 00:06:42;;;;;;;1.60;0.50;;;;;;;31.15;22.05;93681.50;5095308;28;20044;-43
2021/05/18 00:11:55;;;;;;;2.92;0.60;;;;;;;30.64;22.58;93716.56;5095013;28;20047;-42
2021/05/18 00:14:24;;;;;;;1.65;0.50;;;;;;;30.67;22.46;93714.94;5074640;28;20044;-42
2021/05/18 00:16:52;;;;;;;3.00;0.50;;;;;;;31.07;21.87;93714.53;5091662;28;20040;-44
2021/05/18 00:19:20;;;;;;;1.33;0.60;;;;;;;30.52;22.41;93719.22;5095161;28;20051;-48
2021/05/18 00:21:47;;;;;;;2.72;0.65;;;;;;;30.33;23.11;93718.19;5094859;28;20126;-42
2021/05/18 00:24:15;;;;;;;1.33;0.63;;;;;;;30.96;22.49;93731.03;5094540;28;20051;-44
2021/05/18 00:26:42;;;;;;;1.30;0.32;;;;;;;29.93;23.57;93723.88;5094814;28;20040;-42
2021/05/18 00:29:09;;;;;;;0.95;0.40;;;;;;;30.47;22.85;93728.59;5095175;28;20040;-42
2021/05/18 00:31:37;;;;;;;0.80;0.50;;;;;;;30.48;23.04;93732.81;5077051;28;20072;-43
2021/05/18 00:34:05;;;;;;;1.38;0.50;;;;;;;30.05;23.47;93736.66;5094502;28;20040;-42
2021/05/18 00:36:32;;;;;;;1.30;0.43;;;;;;;30.31;23.35;93736.75;5094980;28;20055;-42
2021/05/18 00:38:59;;;;;;;0.80;0.57;;;;;;;30.80;22.56;93739.25;5098065;28;20050;-48
2021/05/18 00:41:27;;;;;;;1.60;0.70;;;;;;;30.50;23.09;93743.91;5098960;28;20043;-43
2021/05/18 00:44:00;;;;;;;1.42;0.60;;;;;;;31.20;22.45;93745.00;5098406;28;20052;-42
2021/05/18 00:46:29;;;;;;;2.38;0.63;;;;;;;30.35;23.42;93753.56;5098757;28;20355;-52
2021/05/18 00:49:03;;;;;;;0.93;0.52;;;;;;;30.26;23.50;93764.22;5089244;28;20059;-42
2021/05/18 00:51:40;;;;;;;1.25;0.43;;;;;;;30.57;23.02;93776.06;5081272;28;20048;-42
2021/05/18 00:54:16;;;;;;;0.98;0.47;;;;;;;30.63;23.09;93766.28;5080571;28;20044;-42
2021/05/18 00:59:12;;;;;;;1.20;0.60;;;;;;;30.13;23.84;93763.41;5080448;28;20048;-42
2021/05/18 01:01:39;;;;;;;1.35;0.68;;;;;;;29.76;24.29;93733.16;5080671;28;20043;-49
2021/05/18 01:04:12;;;;;;;1.52;0.55;;;;;;;31.49;21.77;93701.66;5079908;28;20039;-43
2021/05/18 01:06:41;;;;;;;5.25;0.70;;;;;;;31.17;22.55;93729.66;5098660;28;20043;-43
2021/05/18 01:09:11;;;;;;;2.25;0.80;;;;;;;31.46;22.17;93713.31;5091994;28;20474;-41
2021/05/18 01:11:40;;;;;;;2.35;0.70;;;;;;;31.07;22.55;93730.72;5097906;28;20074;-42
2021/05/18 01:14:12;;;;;;;3.45;0.70;;;;;;;31.08;22.54;93746.50;5098435;28;20052;-42
2021/05/18 01:16:44;;;;;;;2.88;0.88;;;;;;;31.07;22.60;93752.31;5080107;28;20040;-42
2021/05/18 01:19:12;;;;;;;1.33;0.70;;;;;;;31.44;22.38;93756.22;5097163;28;20389;-42
2021/05/18 01:21:39;;;;;;;1.67;0.70;;;;;;;31.39;22.43;93760.22;5078158;28;20075;-42
2021/05/18 01:24:08;;;;;;;1.10;0.65;;;;;;;31.06;22.88;93767.75;5079068;28;20051;-46
2021/05/18 01:26:37;;;;;;;1.67;0.63;;;;;;;30.72;23.54;93775.72;5080439;28;20043;-42
2021/05/18 01:29:09;;;;;;;1.77;0.60;;;;;;;31.26;22.70;93764.88;5098525;28;20047;-44
2021/05/18 01:31:42;;;;;;;3.58;0.65;;;;;;;30.86;23.39;93775.28;5098297;28;20536;-43
2021/05/18 01:34:10;;;;;;;1.90;0.68;;;;;;;30.72;23.26;93773.78;5097879;28;20048;-42
2021/05/18 01:36:44;;;;;;;1.27;0.80;;;;;;;31.09;22.98;93777.69;5097848;28;20055;-42
2021/05/18 01:39:53;;;;;;;1.35;0.65;;;;;;;31.15;22.92;93781.34;5082411;28;20055;-44
2021/05/18 01:45:12;;;;;;;1.30;0.60;;;;;;;31.63;22.16;93771.44;5096920;28;20052;-44
2021/05/18 01:47:45;;;;;;;1.30;0.70;;;;;;;31.23;22.27;93785.41;5097917;28;20044;-43
2021/05/18 01:50:13;;;;;;;1.88;0.80;;;;;;;31.08;22.54;93788.94;5071040;28;20124;-47
2021/05/18 01:52:41;;;;;;;1.02;0.55;;;;;;;31.02;22.43;93793.34;5077303;28;20048;-42
2021/05/18 01:55:09;;;;;;;3.80;1.00;;;;;;;31.39;21.91;93794.56;5077567;28;20055;-42
2021/05/18 01:57:40;;;;;;;2.40;0.80;;;;;;;31.23;22.12;93803.56;5076930;28;20052;-42
2021/05/18 02:00:16;;;;;;;2.90;0.60;;;;;;;30.98;22.04;93785.38;5077325;28;20554;-46
2021/05/18 02:02:51;;;;;;;1.20;0.70;;;;;;;31.02;21.69;93791.41;5077196;28;20055;-43
2021/05/18 02:05:30;;;;;;;1.38;0.73;;;;;;;31.36;21.60;93790.03;5076071;28;20048;-43
2021/05/18 02:08:17;;;;;;;2.15;0.70;;;;;;;30.72;21.89;93795.34;5077602;28;20047;-50
2021/05/18 02:10:46;;;;;;;1.25;0.50;;;;;;;31.09;21.60;93809.31;5075921;28;20055;-42
2021/05/18 02:13:14;;;;;;;2.17;0.80;;;;;;;29.94;22.95;93821.63;5077117;28;20435;-42
2021/05/18 02:15:55;;;;;;;2.35;0.60;;;;;;;30.91;22.20;93815.22;5078984;28;20048;-42
2021/05/18 02:26:20;;;;;;;3.08;0.63;;;;;;;31.13;22.11;93843.13;5076981;28;20050;-44
2021/05/18 02:28:52;;;;;;;3.33;0.90;;;;;;;30.60;22.65;93848.06;5077324;28;20041;-43
2021/05/18 02:31:20;;;;;;;1.27;0.80;;;;;;;31.57;21.46;93852.25;5093610;28;20043;-45
2021/05/18 02:33:50;;;;;;;0.77;0.60;;;;;;;30.57;22.93;93848.91;5078678;28;20043;-42
2021/05/18 02:36:22;;;;;;;1.10;0.68;;;;;;;30.71;22.70;93850.50;5079129;28;20040;-43
2021/05/18 02:38:50;;;;;;;1.33;0.75;;;;;;;30.94;22.90;93852.16;5095630;28;20048;-42
2021/05/18 02:41:20;;;;;;;4.35;0.90;;;;;;;30.99;22.50;93862.44;5096611;28;20073;-42
2021/05/18 02:44:00;;;;;;;1.33;0.93;;;;;;;31.09;22.55;93858.66;5077317;28;20408;-43
2021/05/18 02:51:32;;;;;;;2.10;1.20;;;;;;;31.26;22.22;93889.06;5096463;28;20382;-42
2021/05/18 02:54:00;;;;;;;5.22;1.38;;;;;;;30.41;23.13;93892.06;5064386;28;20047;-44
2021/05/18 02:59:23;;;;;;;1.90;1.38;;;;;;;31.27;22.14;93867.03;5058357;28;20474;-42
2021/05/18 03:01:58;;;;;;;2.55;1.45;;;;;;;30.37;23.14;93861.75;5075482;28;20110;-48
2021/05/18 03:04:25;;;;;;;1.38;1.27;;;;;;;30.52;22.98;93857.50;5068195;28;20470;-43
2021/05/18 03:06:54;;;;;;;4.05;1.50;;;;;;;29.96;23.44;93870.44;5075361;28;20075;-43
2021/05/18 03:09:22;;;;;;;1.67;1.50;;;;;;;30.75;22.76;93872.72;5080794;28;20044;-43
2021/05/18 03:11:50;;;;;;;1.60;1.50;;;;;;;30.62;23.04;93869.97;5096038;28;20481;-42
2021/05/18 03:14:18;;;;;;;2.00;1.52;;;;;;;31.70;21.55;93873.09;5095992;28;20366;-42
2021/05/18 03:16:47;;;;;;;1.80;1.50;;;;;;;31.28;21.78;93871.25;5095622;28;20054;-42
2021/05/18 03:19:15;;;;;;;2.20;1.80;;;;;;;31.77;21.75;93862.88;5092048;28;20056;-42
2021/05/18 03:21:44;;;;;;;1.95;1.60;;;;;;;31.71;21.22;93875.38;5076033;28;20059;-41
2021/05/18 03:24:11;;;;;;;2.20;1.52;;;;;;;31.82;21.19;93865.03;5075478;28;20044;-42
2021/05/18 03:26:49;;;;;;;2.42;1.67;;;;;;;32.20;20.69;93866.91;5075783;28;20045;-42
2021/05/18 03:29:31;;;;;;;3.60;1.90;;;;;;;32.17;20.74;93859.66;5079373;28;20047;-42
2021/05/18 03:34:44;;;;;;;2.70;1.75;;;;;;;32.14;20.54;93863.25;5095580;28;20051;-42
2021/05/18 03:39:43;;;;;;;2.55;1.77;;;;;;;32.04;21.36;93875.16;5086032;28;20043;-42
2021/05/18 03:52:43;;;;;;;2.10;1.45;;;;;;;31.22;21.21;93883.00;5095431;28;20052;-43
2021/05/18 04:03:37;;;;;;;2.03;1.33;;;;;;;31.30;20.99;93892.44;5095405;28;20450;-43
2021/05/18 04:11:52;;;;;;;2.55;1.25;;;;;;;32.18;20.67;93893.63;5077895;28;20047;-43
2021/05/18 04:17:23;;;;;;;2.50;1.27;;;;;;;31.87;20.65;93902.31;5013180;28;20057;-50
2021/05/18 04:20:11;;;;;;;1.60;1.15;;;;;;;32.43;19.79;93899.00;5019907;28;20056;-49
2021/05/18 04:50:04;;;;;;;1.77;1.10;;;;;;;33.20;20.60;93934.66;5079129;28;20063;-42
2021/05/18 04:52:34;;;;;;;4.03;1.20;;;;;;;32.65;20.06;93933.44;5094541;28;20051;-42
2021/05/18 05:00:49;;;;;;;1.30;1.05;;;;;;;32.33;20.63;93951.50;5085252;28;20050;-42
2021/05/18 05:09:04;;;;;;;1.60;0.63;;;;;;;32.36;19.78;93966.84;5076908;28;20071;-46
2021/05/18 05:14:24;;;;;;;1.10;0.70;;;;;;;32.04;20.31;93967.06;5094126;28;20055;-44
2021/05/18 05:16:52;;;;;;;2.08;0.75;;;;;;;31.35;20.90;93972.13;5094401;28;20051;-43
2021/05/18 05:19:21;;;;;;;1.77;0.85;;;;;;;32.78;19.49;93980.16;5093233;28;20059;-43
2021/05/18 05:21:48;;;;;;;1.60;0.77;;;;;;;32.06;20.08;93978.19;5074362;28;20044;-43
2021/05/18 05:24:15;;;;;;;1.08;0.57;;;;;;;31.83;20.57;93982.72;5075812;28;20070;-43
2021/05/18 05:26:43;;;;;;;1.00;0.60;;;;;;;31.93;19.90;93978.19;5078113;28;20048;-41
2021/05/18 05:29:10;;;;;;;1.10;0.70;;;;;;;32.36;19.55;93985.78;5078008;28;20037;-41
2021/05/18 05:31:38;;;;;;;1.58;0.70;;;;;;;32.45;19.44;93985.84;5077718;28;20051;-43
2021/05/18 05:34:06;;;;;;;1.67;0.68;;;;;;;31.76;20.05;93991.06;5077534;28;20044;-42
2021/05/18 05:36:34;;;;;;;0.80;0.60;;;;;;;31.55;20.63;93986.22;5077918;28;20059;-42
2021/05/18 05:39:04;;;;;;;1.27;0.63;;;;;;;31.71;19.83;93980.75;5080015;28;20052;-42
2021/05/18 05:41:32;;;;;;;1.42;0.63;;;;;;;32.33;19.42;93988.59;5101557;28;20473;-42
2021/05/18 05:44:00;;;;;;;1.95;0.80;;;;;;;32.14;18.99;93984.91;5111946;28;20051;-43
2021/05/18 05:46:27;;;;;;;1.92;0.65;;;;;;;31.77;20.16;93986.41;5097492;28;20044;-42
2021/05/18 05:48:54;;;;;;;2.25;1.00;;;;;;;31.75;19.63;93992.25;5097762;28;20059;-43
2021/05/18 05:51:23;;;;;;;1.77;0.80;;;;;;;32.77;18.63;93989.47;5097580;28;20040;-43
2021/05/18 05:53:51;;;;;;;1.40;0.60;;;;;;;32.40;18.91;93983.72;5097457;28;20044;-44
2021/05/18 05:56:19;;;;;;;1.80;0.90;;;;;;;32.63;19.01;93996.13;5097776;28;20039;-42
2021/05/18 05:58:47;;;;;;;1.33;0.85;;;;;;;32.12;19.94;93989.97;5077720;28;20048;-42
2021/05/18 06:01:14;;;;;;;1.05;0.57;;;;;;;32.36;19.62;93996.59;5092744;28;20048;-43
2021/05/18 06:03:42;;;;;;;2.90;0.90;;;;;;;32.77;19.20;93992.16;5097142;28;20482;-43
2021/05/18 06:06:09;;;;;;;1.25;0.70;;;;;;;32.15;19.66;94008.03;5097577;28;20055;-41
2021/05/18 06:08:46;;;;;;;1.40;0.60;;;;;;;33.10;19.32;94006.94;5097260;28;20047;-44
2021/05/18 06:48:29;;;;;;;1.40;0.87;;;;;;;34.58;17.15;94020.13;5096807;28;20043;-43
2021/05/18 06:50:57;;;;;;;1.10;0.70;;;;;;;33.63;17.26;94020.59;5084779;28;20048;-42
2021/05/18 06:53:24;;;;;;;2.00;1.23;;;;;;;34.15;16.53;94013.66;5076329;28;20048;-44
2021/05/18 06:55:53;;;;;;;3.00;1.40;;;;;;;34.57;16.35;94018.63;5087144;28;20044;-44
2021/05/18 07:00:06;;;;;;;4.05;2.08;;;;;;;34.58;16.35;94026.31;5076297;28;20040;-42
2021/05/18 07:01:18;;;;;;;2.58;1.27;;;;;;;35.24;15.61;94017.84;5090281;28;20478;-43
2021/05/18 07:04:00;;;;;;;2.10;1.20;;;;;;;34.01;16.94;94022.31;5089891;28;20443;-43
2021/05/18 07:06:40;;;;;;;2.08;1.10;;;;;;;34.93;15.42;94017.97;5096463;28;20044;-43
2021/05/18 07:09:08;;;;;;;2.80;0.73;;;;;;;33.76;17.17;94017.78;5092365;28;20040;-43
2021/05/18 07:11:35;;;;;;;1.40;0.80;;;;;;;35.17;15.49;94026.28;5096413;28;20370;-44
2021/05/18 07:14:02;;;;;;;1.92;0.73;;;;;;;33.70;16.35;94022.28;5096107;28;20075;-43
2021/05/18 07:16:30;;;;;;;1.30;0.60;;;;;;;35.69;15.19;94027.19;5096197;28;20473;-44
2021/05/18 07:18:57;;;;;;;1.05;0.60;;;;;;;34.55;16.04;94021.78;5096136;28;20059;-43
2021/05/18 07:21:24;;;;;;;2.42;0.60;;;;;;;34.82;15.69;94029.22;5081245;28;20056;-43
2021/05/18 07:23:52;;;;;;;0.90;0.50;;;;;;;34.86;15.36;94029.88;5075442;28;20055;-43
2021/05/18 07:26:20;;;;;;;0.80;0.50;;;;;;;35.39;15.83;94026.16;5075815;28;20051;-42
2021/05/18 07:28:48;;;;;;;1.30;0.50;;;;;;;35.94;15.01;94024.13;5075590;28;20037;-44
2021/05/18 07:31:15;;;;;;;1.75;0.60;;;;;;;34.98;15.34;94025.53;5075463;28;20056;-43
2021/05/18 07:33:42;;;;;;;1.55;0.77;;;;;;;35.71;14.70;94036.41;5075546;28;20051;-42
2021/05/18 07:36:10;;;;;;;4.60;3.47;;;;;;;34.77;15.13;94031.78;5075568;28;20051;-43
2021/05/18 07:38:39;;;;;;;14.38;9.18;;;;;;;34.07;16.56;94041.47;5075685;28;20369;-43
2021/05/18 07:41:07;;;;;;;5.10;2.45;;;;;;;33.99;15.82;94041.00;5077631;28;20350;-43
2021/05/18 07:43:34;;;;;;;3.35;1.65;;;;;;;34.08;15.96;94051.13;5095489;28;20039;-42
2021/05/18 07:46:04;;;;;;;4.38;1.90;;;;;;;33.41;16.63;94053.09;5094211;28;20055;-43
2021/05/18 07:59:34;;;;;;;1.60;0.60;;;;;;;33.54;16.21;94065.81;5076787;28;20561;-44
2021/05/18 08:02:23;;;;;;;2.25;0.73;;;;;;;34.14;15.68;94058.25;5095147;28;20058;-42
2021/05/18 08:07:37;;;;;;;2.13;0.40;;;;;;;33.72;16.66;94066.72;5094747;28;20040;-42
2021/05/18 08:12:37;;;;;;;2.10;0.70;;;;;;;34.51;16.50;94064.59;5075030;28;20059;-45
2021/05/18 10:34:28;;;;;;;1.10;0.40;;;;;;;36.04;13.85;94057.50;5095399;28;20052;-43
2021/05/18 10:36:56;;;;;;;1.30;0.40;;;;;;;35.71;13.76;94058.13;5095256;28;20715;-43
2021/05/18 10:39:27;;;;;;;0.40;0.22;;;;;;;35.66;13.86;94066.16;5070903;28;20048;-41
2021/05/18 10:41:55;;;;;;;0.93;0.40;;;;;;;35.33;14.48;94072.16;5075849;28;20474;-42
2021/05/18 10:44:22;;;;;;;4.20;0.20;;;;;;;35.44;13.70;94075.22;5074852;28;20462;-54
2021/05/18 10:46:49;;;;;;;2.15;0.60;;;;;;;35.71;13.92;94074.44;5092642;28;20044;-42
2021/05/18 10:49:34;;;;;;;2.40;0.60;;;;;;;36.17;13.42;94070.88;5095989;28;20044;-42
2021/05/18 10:52:03;;;;;;;2.45;0.65;;;;;;;35.61;14.08;94085.78;5095829;28;20051;-42
2021/05/18 10:54:33;;;;;;;2.70;0.45;;;;;;;36.18;13.39;94089.50;5095731;28;20047;-43
2021/05/18 10:57:02;;;;;;;3.00;0.88;;;;;;;35.41;13.88;94078.09;5095886;28;20052;-47
2021/05/18 10:59:34;;;;;;;0.75;0.50;;;;;;;35.62;14.38;94090.00;5095717;28;20055;-41
2021/05/18 11:02:13;;;;;;;2.10;0.50;;;;;;;36.73;13.26;94084.63;5095659;28;20052;-41
2021/05/18 11:04:44;;;;;;;4.35;1.15;;;;;;;36.56;14.01;94080.00;5072038;28;20051;-43
2021/05/18 11:07:16;;;;;;;1.30;0.40;;;;;;;35.93;13.94;94078.97;5095925;28;20040;-52
2021/05/18 11:09:43;;;;;;;1.00;0.40;;;;;;;36.58;13.89;94063.97;5084302;28;20443;-42
2021/05/18 11:12:18;;;;;;;0.90;0.40;;;;;;;35.95;13.81;94071.88;5074926;28;20075;-41
2021/05/18 11:14:52;;;;;;;0.68;0.45;;;;;;;36.28;13.59;94065.72;5074840;28;20051;-44
2021/05/18 11:17:24;;;;;;;1.20;0.30;;;;;;;36.24;14.19;94067.88;5075512;28;20048;-49
2021/05/18 11:20:08;;;;;;;2.22;0.43;;;;;;;35.77;13.81;94066.44;5083647;28;20053;-44
2021/05/18 11:25:32;;;;;;;1.77;0.60;;;;;;;35.94;13.17;94069.63;5080718;28;20072;-51
2021/05/18 11:28:15;;;;;;;3.33;0.60;;;;;;;36.42;12.47;94067.81;5075124;28;20454;-47
2021/05/18 11:30:44;;;;;;;1.27;0.50;;;;;;;36.03;13.30;94075.78;5074468;28;20040;-50
2021/05/18 11:33:11;;;;;;;1.02;0.50;;;;;;;36.73;13.09;94062.84;5075099;28;20056;-43
2021/05/18 11:35:38;;;;;;;4.25;0.70;;;;;;;35.79;13.58;94074.88;5076330;28;20295;-50
2021/05/18 11:38:11;;;;;;;2.05;0.57;;;;;;;36.00;13.69;94068.53;5093415;28;20048;-50
2021/05/18 11:40:41;;;;;;;12.15;1.42;;;;;;;35.79;13.30;94080.31;5079395;28;20051;-56
2021/05/18 11:43:23;;;;;;;3.40;0.75;;;;;;;34.87;14.04;94063.97;5074863;28;20048;-42
2021/05/18 11:46:26;;;;;;;1.70;0.55;;;;;;;36.10;13.52;94067.28;5090896;28;20058;-41
2021/05/18 11:49:08;;;;;;;2.30;1.02;;;;;;;35.93;13.15;94066.16;5042666;28;20050;-47
2021/05/18 11:51:49;;;;;;;2.85;0.75;;;;;;;36.24;13.14;94065.16;5074440;28;20048;-52
2021/05/18 11:54:18;;;;;;;2.88;0.68;;;;;;;35.50;13.15;94064.50;5074416;28;20053;-42
2021/05/18 11:56:46;;;;;;;1.40;0.38;;;;;;;35.87;12.29;94065.22;5074644;28;20482;-46
2021/05/18 11:59:20;;;;;;;2.40;0.68;;;;;;;35.53;12.77;94064.34;5074290;28;20048;-42
2021/05/18 12:01:56;;;;;;;1.50;0.80;;;;;;;35.33;12.36;94064.00;5073640;28;20058;-49
2021/05/18 12:04:25;;;;;;;4.25;1.40;;;;;;;35.13;12.64;94069.13;5093153;28;20051;-53
2021/05/18 12:06:59;;;;;;;6.18;2.53;;;;;;;35.14;13.12;94060.56;5094591;28;20402;-49
2021/05/18 12:09:27;;;;;;;5.40;1.80;;;;;;;34.55;13.14;94062.50;5089852;28;20468;-44
2021/05/18 12:12:00;;;;;;;2.03;0.90;;;;;;;35.59;11.77;94061.00;5074272;28;20052;-52
2021/05/18 12:14:28;;;;;;;2.63;0.80;;;;;;;35.30;12.35;94054.06;5074121;28;20044;-47
2021/05/18 12:16:56;;;;;;;1.10;0.40;;;;;;;35.80;11.80;94055.41;5091943;28;20055;-42
2021/05/18 12:19:24;;;;;;;49.17;38.00;;;;;;;35.14;12.20;94046.22;5076544;28;20052;-43
2021/05/18 12:21:56;;;;;;;24.33;16.70;;;;;;;35.86;11.41;94036.53;5088886;28;20060;-43
2021/05/18 12:24:25;;;;;;;7.78;6.15;;;;;;;36.41;10.94;94030.91;5074552;28;20355;-45
2021/05/18 12:27:02;;;;;;;5.88;2.88;;;;;;;35.96;11.03;94040.75;5094423;28;20047;-43
2021/05/18 12:29:44;;;;;;;3.70;1.63;;;;;;;36.57;10.58;94044.16;5094381;28;20047;-42
2021/05/18 12:32:34;;;;;;;2.10;1.27;;;;;;;35.44;11.39;94034.47;5094394;28;20054;-45
2021/05/18 12:35:04;;;;;;;2.28;0.88;;;;;;;35.45;11.51;94035.97;5097761;28;20051;-54
2021/05/18 12:37:43;;;;;;;2.63;0.70;;;;;;;36.06;10.80;94036.78;5098827;28;20056;-43
2021/05/18 12:40:18;;;;;;;4.82;0.60;;;;;;;36.15;10.81;94034.03;5070955;28;20336;-41
2021/05/18 12:42:47;;;;;;;1.48;0.65;;;;;;;35.96;10.81;94035.31;5077828;28;20055;-42
2021/05/18 12:45:21;;;;;;;3.92;0.70;;;;;;;35.44;11.31;94045.34;5081902;28;20048;-42
2021/05/18 12:47:54;;;;;;;2.08;0.50;;;;;;;36.29;10.63;94042.75;5097850;28;20405;-51
2021/05/18 12:50:21;;;;;;;2.60;0.90;;;;;;;35.59;11.02;94044.69;5097935;28;20070;-44
2021/05/18 12:52:53;;;;;;;4.18;1.60;;;;;;;35.91;10.73;94040.59;5097192;28;20052;-50
2021/05/18 12:55:29;;;;;;;2.65;1.38;;;;;;;35.89;11.17;94035.59;5098332;28;20465;-48
2021/05/18 12:58:01;;;;;;;8.82;1.70;;;;;;;35.85;11.25;94048.63;5098364;28;20051;-42
2021/05/18 13:00:35;;;;;;;6.50;1.10;;;;;;;36.57;11.20;94048.84;5090316;28;20048;-43
2021/05/18 13:03:11;;;;;;;12.98;1.48;;;;;;;36.70;10.52;94027.63;5092200;28;20048;-50
2021/05/18 13:05:40;;;;;;;4.55;0.80;;;;;;;36.58;10.42;94040.22;5079390;28;20387;-44
2021/05/18 13:08:37;;;;;;;4.65;0.50;;;;;;;36.13;10.46;94046.56;5093448;28;20051;-51
2021/05/18 13:13:45;;;;;;;1.77;0.60;;;;;;;36.28;11.98;94038.53;5086362;28;20045;-55
2021/05/18 13:16:18;;;;;;;3.60;1.00;;;;;;;36.98;11.48;94039.13;5089487;28;20048;-44
2021/05/18 13:19:00;;;;;;;1.80;0.65;;;;;;;36.22;10.58;94030.25;5098110;28;20052;-42
2021/05/18 13:21:38;;;;;;;16.23;1.60;;;;;;;36.88;10.36;94041.13;5097321;28;20052;-55
2021/05/18 13:26:39;;;;;;;2.13;0.50;;;;;;;36.77;10.21;94034.69;5096681;28;20040;-43
2021/05/18 13:29:09;;;;;;;6.47;1.10;;;;;;;36.27;11.92;94042.47;5077615;28;20040;-45
2021/05/18 13:31:38;;;;;;;1.73;0.90;;;;;;;36.43;11.88;94028.50;5096516;28;20459;-48
2021/05/18 13:34:06;;;;;;;3.67;0.90;;;;;;;35.96;12.64;94029.88;5097217;28;20362;-57
2021/05/18 13:36:35;;;;;;;0.68;0.40;;;;;;;36.41;11.62;94036.38;5097596;28;20335;-42
2021/05/18 13:39:08;;;;;;;1.23;0.52;;;;;;;35.95;11.78;94039.25;5097334;28;20083;-50
2021/05/18 13:41:36;;;;;;;1.92;0.50;;;;;;;36.17;11.52;94038.25;5077959;28;20044;-47
2021/05/18 13:44:05;;;;;;;3.00;0.50;;;;;;;35.86;11.41;94047.41;5076451;28;20111;-43
2021/05/18 13:46:33;;;;;;;1.23;0.50;;;;;;;36.07;11.66;94032.09;5091448;28;20036;-42
2021/05/18 13:49:00;;;;;;;2.88;0.60;;;;;;;36.20;11.48;94043.56;5097358;28;20056;-42
2021/05/18 13:51:28;;;;;;;1.55;0.30;;;;;;;36.63;10.94;94042.31;5079178;28;20043;-41
2021/05/18 13:53:55;;;;;;;1.13;0.28;;;;;;;36.36;11.15;94045.91;5096930;28;20043;-53
2021/05/18 13:56:24;;;;;;;2.90;0.40;;;;;;;36.02;11.21;94052.50;5079321;28;20044;-50
2021/05/18 13:58:54;;;;;;;1.60;0.40;;;;;;;36.36;11.41;94050.59;5097109;28;20062;-51
2021/05/18 14:01:22;;;;;;;3.65;0.47;;;;;;;36.48;11.38;94048.91;5096690;28;20469;-49
2021/05/18 14:03:49;;;;;;;2.72;0.55;;;;;;;36.45;11.43;94050.59;5077201;28;20062;-52
2021/05/18 14:06:16;;;;;;;0.65;0.20;;;;;;;35.95;11.69;94055.56;5097082;28;20581;-45
2021/05/18 14:08:44;;;;;;;2.22;0.50;;;;;;;36.06;11.62;94055.81;5096689;28;20051;-49
2021/05/18 14:11:11;;;;;;;3.22;0.70;;;;;;;36.33;11.40;94049.56;5081720;28;20363;-42
2021/05/18 14:13:50;;;;;;;1.52;0.40;;;;;;;36.32;10.91;94055.47;5076441;28;20048;-49
2021/05/18 14:16:19;;;;;;;1.70;0.30;;;;;;;36.37;11.16;94052.88;5088921;28;20060;-53
2021/05/18 14:18:54;;;;;;;0.60;0.30;;;;;;;35.94;11.79;94056.78;5096718;28;20052;-53
2021/05/18 14:21:22;;;;;;;4.95;0.55;;;;;;;35.83;11.11;94053.75;5096284;28;20332;-49
2021/05/18 14:26:21;;;;;;;3.15;0.40;;;;;;;36.56;11.18;94047.34;5095884;28;20044;-42
2021/05/18 14:28:48;;;;;;;1.30;0.60;;;;;;;36.80;11.21;94059.03;5096366;28;20048;-43
2021/05/18 14:31:16;;;;;;;3.03;0.50;;;;;;;36.60;10.96;94053.38;5096436;28;20040;-41
2021/05/18 14:33:44;;;;;;;3.25;0.63;;;;;;;36.35;11.04;94059.97;5096466;28;20044;-41
2021/05/18 14:36:12;;;;;;;1.10;0.47;;;;;;;36.23;11.18;94058.19;5096209;28;20044;-51
2021/05/18 14:38:43;;;;;;;2.13;0.60;;;;;;;37.27;11.15;94055.59;5082303;28;20079;-44
2021/05/18 14:56:49;;;;;;;5.65;1.08;;;;;;;36.75;11.22;94048.75;5095223;28;20370;-61
2021/05/18 14:59:16;;;;;;;3.08;0.80;;;;;;;37.20;10.97;94039.53;5096310;28;20055;-57
2021/05/18 15:01:43;;;;;;;2.20;0.75;;;;;;;37.16;11.45;94038.97;5095991;28;20044;-47
2021/05/18 15:04:10;;;;;;;8.63;5.25;;;;;;;37.41;11.32;94039.72;5095582;28;20054;-49
2021/05/18 15:06:39;;;;;;;7.00;3.67;;;;;;;36.36;11.40;94039.72;5095830;28;20055;-56
2021/05/18 15:09:07;;;;;;;6.18;2.95;;;;;;;36.86;11.44;94042.81;5083124;28;20040;-59
2021/05/18 15:11:35;;;;;;;2.83;1.67;;;;;;;36.84;10.95;94026.94;5095538;28;20358;-50
2021/05/18 15:14:04;;;;;;;2.67;1.20;;;;;;;36.62;10.96;94035.34;5085543;28;20044;-43
2021/05/18 15:16:31;;;;;;;3.55;1.08;;;;;;;36.54;11.49;94050.53;5072174;28;20060;-41
2021/05/18 15:19:04;;;;;;;1.15;0.80;;;;;;;36.60;11.49;94048.69;5094416;28;20359;-39
2021/05/18 15:21:31;;;;;;;1.90;0.70;;;;;;;37.03;10.79;94047.41;5095294;28;20055;-39
2021/05/18 15:23:58;;;;;;;1.17;0.60;;;;;;;37.02;10.29;94039.69;5095052;28;20044;-40
2021/05/18 15:26:25;;;;;;;2.30;0.63;;;;;;;36.71;10.25;94040.03;5095666;28;20458;-45
2021/05/18 15:28:53;;;;;;;1.00;0.32;;;;;;;36.72;10.42;94034.09;5095006;28;20044;-39
2021/05/18 15:31:20;;;;;;;1.42;0.77;;;;;;;36.94;10.36;94031.09;5095364;28;20050;-40
2021/05/18 15:33:47;;;;;;;1.48;0.38;;;;;;;36.29;10.08;94042.75;5094096;28;20059;-40
2021/05/18 15:36:15;;;;;;;1.30;0.40;;;;;;;36.79;9.90;94040.44;5095329;28;20043;-40
2021/05/18 15:38:44;;;;;;;2.05;0.40;;;;;;;36.19;10.07;94031.16;5095000;28;20078;-40
2021/05/18 15:41:13;;;;;;;1.85;0.47;;;;;;;36.27;10.21;94045.94;5060337;28;20067;-40
2021/05/18 15:43:42;;;;;;;1.10;0.30;;;;;;;36.87;9.89;94039.63;5074313;28;20060;-40
2021/05/18 15:46:09;;;;;;;0.80;0.30;;;;;;;36.96;9.98;94031.41;5086229;28;20067;-39
2021/05/18 15:48:36;;;;;;;0.70;0.40;;;;;;;36.18;10.15;94034.34;5094272;28;20394;-40
2021/05/18 15:51:03;;;;;;;1.13;0.50;;;;;;;36.38;10.13;94040.00;5094348;28;20044;-52
2021/05/18 15:53:30;;;;;;;1.30;0.60;;;;;;;36.52;10.15;94042.06;5092523;28;20056;-58
2021/05/18 15:55:58;;;;;;;0.80;0.35;;;;;;;37.08;9.86;94042.53;5094563;28;20055;-39
2021/05/18 15:58:25;;;;;;;1.55;0.50;;;;;;;37.11;10.06;94036.91;5094633;28;20051;-45
2021/05/18 16:00:54;;;;;;;1.13;0.47;;;;;;;37.17;10.25;94035.03;5093981;28;20048;-40
2021/05/18 16:03:21;;;;;;;3.03;0.50;;;;;;;36.73;10.48;94038.34;5093389;28;20066;-40
2021/05/18 16:05:49;;;;;;;0.90;0.40;;;;;;;36.65;10.20;94050.00;5093811;28;20447;-40
2021/05/18 16:11:05;;;;;;;1.40;0.57;;;;;;;37.28;10.05;94046.19;5093112;28;20047;-39
2021/05/18 16:13:33;;;;;;;1.30;0.35;;;;;;;37.16;10.58;94043.66;5092661;28;20056;-42
2021/05/18 16:16:11;;;;;;;1.58;0.70;;;;;;;37.01;10.82;94046.38;5094099;28;20355;-40
2021/05/18 16:18:39;;;;;;;0.90;0.50;;;;;;;36.75;11.02;94049.50;5092307;28;20063;-53
2021/05/18 16:21:12;;;;;;;1.30;0.65;;;;;;;36.79;11.18;94048.63;5094314;28;20494;-40
2021/05/18 16:23:40;;;;;;;1.30;0.63;;;;;;;36.75;10.57;94044.06;5090930;28;20048;-40
2021/05/18 16:26:23;;;;;;;2.45;0.45;;;;;;;36.44;11.00;94046.34;5092388;28;20056;-40
2021/05/18 16:28:51;;;;;;;1.27;0.68;;;;;;;36.65;10.57;94045.31;5093877;28;20376;-39
2021/05/18 16:31:18;;;;;;;1.90;0.80;;;;;;;37.04;11.08;94039.97;5094173;28;20055;-39
2021/05/18 16:33:55;;;;;;;2.95;0.88;;;;;;;36.61;11.24;94044.00;5092568;28;20058;-43
2021/05/18 16:36:23;;;;;;;2.15;0.85;;;;;;;37.14;10.99;94035.97;5089954;28;20048;-40
2021/05/18 16:38:51;;;;;;;2.70;0.85;;;;;;;37.17;10.75;94035.03;5094146;28;20044;-53
2021/05/18 16:41:18;;;;;;;2.38;1.10;;;;;;;36.89;11.09;94036.44;5094411;28;20048;-42
2021/05/18 16:43:46;;;;;;;1.80;0.57;;;;;;;36.82;10.90;94042.25;5071258;28;20060;-46
2021/05/18 16:46:13;;;;;;;1.40;0.50;;;;;;;36.38;11.33;94037.28;5085884;28;20051;-41
2021/05/18 16:48:41;;;;;;;1.00;0.70;;;;;;;36.75;11.52;94041.34;5094204;28;20063;-39
2021/05/18 16:51:09;;;;;;;1.80;1.00;;;;;;;36.72;11.34;94045.00;5094781;28;20518;-40
2021/05/18 16:53:37;;;;;;;1.80;0.80;;;;;;;37.57;10.46;94042.00;5073675;28;20366;-42
2021/05/18 16:56:07;;;;;;;10.75;9.98;;;;;;;37.30;11.46;94043.75;5094244;28;20044;-41
2021/05/18 16:58:35;;;;;;;5.03;3.22;;;;;;;37.20;11.22;94042.28;5076867;28;20075;-44
2021/05/18 17:01:03;;;;;;;7.28;2.72;;;;;;;36.99;11.43;94037.91;5094462;28;20059;-41
2021/05/18 17:03:30;;;;;;;3.00;1.23;;;;;;;36.81;11.85;94046.19;5093867;28;20473;-43
2021/05/18 17:05:59;;;;;;;2.45;1.00;;;;;;;36.78;11.57;94047.88;5080102;28;20052;-45
2021/05/18 17:08:27;;;;;;;1.65;0.82;;;;;;;36.78;11.74;94047.88;5093756;28;20078;-52
2021/05/18 17:10:55;;;;;;;2.35;0.98;;;;;;;37.11;11.34;94044.31;5077227;28;20048;-39